sensor_id;sensor_type;location;lat;lon;timestamp;pressure;altitude;pressure_sealevel;temperature;humidity
5053;BME280;2545;50.892;5.740;2023-01-16T00:01:20;56421.91;;;-142.21;100.00
5053;BME280;2545;50.892;5.740;2023-01-16T00:03:46;56398.38;;;-142.21;100.00
5053;BME280;2545;50.892;5.740;2023-01-16T00:06:12;56406.22;;;-142.21;100.00
5053;BME280;2545;50.892;5.740;2023-01-16T00:08:37;56414.06;;;-142.21;100.00
5053;BME280;2545;50.892;5.740;2023-01-16T00:11:02;56370.94;;;-142.21;100.00
5053;BME280;2545;50.892;5.740;2023-01-16T00:13:28;56404.28;;;-142.21;100.00
5053;BME280;2545;50.892;5.740;2023-01-16T00:15:53;56386.63;;;-142.21;100.00
5053;BME280;2545;50.892;5.740;2023-01-16T00:18:18;56378.78;;;-142.21;100.00
5053;BME280;2545;50.892;5.740;2023-01-16T00:20:46;56380.75;;;-142.21;100.00
5053;BME280;2545;50.892;5.740;2023-01-16T00:23:11;56386.63;;;-142.21;100.00
5053;BME280;2545;50.892;5.740;2023-01-16T00:25:41;56418.00;;;-142.21;100.00
5053;BME280;2545;50.892;5.740;2023-01-16T00:28:11;56374.84;;;-142.21;100.00
5053;BME280;2545;50.892;5.740;2023-01-16T00:30:37;56374.84;;;-142.21;100.00
5053;BME280;2545;50.892;5.740;2023-01-16T00:33:03;56402.31;;;-142.21;100.00
5053;BME280;2545;50.892;5.740;2023-01-16T00:35:29;56410.16;;;-142.21;100.00
5053;BME280;2545;50.892;5.740;2023-01-16T00:37:54;56376.81;;;-142.21;100.00
5053;BME280;2545;50.892;5.740;2023-01-16T00:40:21;56398.38;;;-142.21;100.00
5053;BME280;2545;50.892;5.740;2023-01-16T00:42:46;56425.84;;;-142.21;100.00
5053;BME280;2545;50.892;5.740;2023-01-16T00:45:12;56378.78;;;-142.21;100.00
5053;BME280;2545;50.892;5.740;2023-01-16T00:47:37;56400.34;;;-142.21;100.00
5053;BME280;2545;50.892;5.740;2023-01-16T00:50:03;56394.47;;;-142.21;100.00
5053;BME280;2545;50.892;5.740;2023-01-16T00:52:29;56431.72;;;-142.21;100.00
5053;BME280;2545;50.892;5.740;2023-01-16T00:54:54;56410.16;;;-142.21;100.00
5053;BME280;2545;50.892;5.740;2023-01-16T00:57:20;56414.06;;;-142.21;100.00
5053;BME280;2545;50.892;5.740;2023-01-16T00:59:45;56367.00;;;-142.21;100.00
5053;BME280;2545;50.892;5.740;2023-01-16T01:02:10;56341.53;;;-142.21;100.00
5053;BME280;2545;50.892;5.740;2023-01-16T01:04:36;56386.63;;;-142.21;100.00
5053;BME280;2545;50.892;5.740;2023-01-16T01:07:01;56372.91;;;-142.21;99.63
5053;BME280;2545;50.892;5.740;2023-01-16T01:09:26;56390.53;;;-142.21;100.00
5053;BME280;2545;50.892;5.740;2023-01-16T01:11:52;56421.91;;;-142.21;100.00
5053;BME280;2545;50.892;5.740;2023-01-16T01:14:17;56388.59;;;-142.21;100.00
5053;BME280;2545;50.892;5.740;2023-01-16T01:16:42;56378.78;;;-142.21;100.00
5053;BME280;2545;50.892;5.740;2023-01-16T01:19:08;56384.66;;;-142.21;100.00
5053;BME280;2545;50.892;5.740;2023-01-16T01:21:33;56421.91;;;-142.21;100.00
5053;BME280;2545;50.892;5.740;2023-01-16T01:23:58;56416.03;;;-142.21;100.00
5053;BME280;2545;50.892;5.740;2023-01-16T01:26:23;56416.03;;;-142.21;100.00
5053;BME280;2545;50.892;5.740;2023-01-16T01:28:49;56404.28;;;-142.21;100.00
5053;BME280;2545;50.892;5.740;2023-01-16T01:31:14;56398.38;;;-142.21;100.00
5053;BME280;2545;50.892;5.740;2023-01-16T01:33:40;56345.44;;;-142.21;100.00
5053;BME280;2545;50.892;5.740;2023-01-16T01:36:06;56378.78;;;-142.21;100.00
5053;BME280;2545;50.892;5.740;2023-01-16T01:38:32;56394.47;;;-142.21;100.00
5053;BME280;2545;50.892;5.740;2023-01-16T01:40:58;56392.50;;;-142.21;100.00
5053;BME280;2545;50.892;5.740;2023-01-16T01:43:41;56404.28;;;-142.21;100.00
5053;BME280;2545;50.892;5.740;2023-01-16T01:46:07;56419.97;;;-142.21;100.00
5053;BME280;2545;50.892;5.740;2023-01-16T01:48:40;56408.19;;;-142.21;100.00
5053;BME280;2545;50.892;5.740;2023-01-16T01:51:17;56372.91;;;-142.21;100.00
5053;BME280;2545;50.892;5.740;2023-01-16T01:53:53;56390.53;;;-142.21;100.00
5053;BME280;2545;50.892;5.740;2023-01-16T01:56:36;56382.69;;;-142.21;100.00
5053;BME280;2545;50.892;5.740;2023-01-16T01:59:07;56376.81;;;-142.21;100.00
5053;BME280;2545;50.892;5.740;2023-01-16T02:01:35;56363.09;;;-142.21;100.00
5053;BME280;2545;50.892;5.740;2023-01-16T02:04:04;56384.66;;;-142.21;100.00
5053;BME280;2545;50.892;5.740;2023-01-16T02:06:39;56386.63;;;-142.21;100.00
5053;BME280;2545;50.892;5.740;2023-01-16T02:09:06;56394.47;;;-142.21;100.00
5053;BME280;2545;50.892;5.740;2023-01-16T02:11:58;56390.53;;;-142.21;100.00
5053;BME280;2545;50.892;5.740;2023-01-16T02:14:27;56400.34;;;-142.21;100.00
5053;BME280;2545;50.892;5.740;2023-01-16T02:20:15;56392.50;;;-142.21;100.00
5053;BME280;2545;50.892;5.740;2023-01-16T02:26:05;56412.13;;;-142.21;100.00
5053;BME280;2545;50.892;5.740;2023-01-16T02:34:30;56416.03;;;-142.21;100.00
5053;BME280;2545;50.892;5.740;2023-01-16T02:37:12;56402.31;;;-142.21;100.00
5053;BME280;2545;50.892;5.740;2023-01-16T02:42:33;56400.34;;;-142.21;100.00
5053;BME280;2545;50.892;5.740;2023-01-16T02:47:57;56414.06;;;-142.21;100.00
5053;BME280;2545;50.892;5.740;2023-01-16T02:50:42;56410.16;;;-142.21;100.00
5053;BME280;2545;50.892;5.740;2023-01-16T02:53:16;56380.75;;;-142.21;100.00
5053;BME280;2545;50.892;5.740;2023-01-16T02:55:58;56423.88;;;-142.21;100.00
5053;BME280;2545;50.892;5.740;2023-01-16T02:58:29;56400.34;;;-142.21;100.00
5053;BME280;2545;50.892;5.740;2023-01-16T03:00:57;56396.44;;;-142.21;100.00
5053;BME280;2545;50.892;5.740;2023-01-16T03:08:59;56412.13;;;-142.21;100.00
5053;BME280;2545;50.892;5.740;2023-01-16T03:11:31;56363.09;;;-142.21;100.00
5053;BME280;2545;50.892;5.740;2023-01-16T03:14:19;56367.00;;;-142.21;100.00
5053;BME280;2545;50.892;5.740;2023-01-16T03:17:17;56361.13;;;-142.21;100.00
5053;BME280;2545;50.892;5.740;2023-01-16T03:22:31;56402.31;;;-142.21;100.00
5053;BME280;2545;50.892;5.740;2023-01-16T03:25:21;56435.66;;;-142.21;100.00
5053;BME280;2545;50.892;5.740;2023-01-16T03:28:13;56384.66;;;-142.21;100.00
5053;BME280;2545;50.892;5.740;2023-01-16T03:30:49;56455.25;;;-142.21;100.00
5053;BME280;2545;50.892;5.740;2023-01-16T03:35:57;56402.31;;;-142.21;100.00
5053;BME280;2545;50.892;5.740;2023-01-16T03:38:25;56437.59;;;-142.21;100.00
5053;BME280;2545;50.892;5.740;2023-01-16T03:40:52;56372.91;;;-142.21;100.00
5053;BME280;2545;50.892;5.740;2023-01-16T03:43:23;56398.38;;;-142.21;100.00
5053;BME280;2545;50.892;5.740;2023-01-16T03:45:54;56386.63;;;-142.21;100.00
5053;BME280;2545;50.892;5.740;2023-01-16T03:51:12;56392.50;;;-142.21;100.00
5053;BME280;2545;50.892;5.740;2023-01-16T03:53:45;56368.97;;;-142.21;100.00
5053;BME280;2545;50.892;5.740;2023-01-16T03:56:29;56341.53;;;-142.21;100.00
5053;BME280;2545;50.892;5.740;2023-01-16T03:58:57;56406.22;;;-142.21;100.00
5053;BME280;2545;50.892;5.740;2023-01-16T04:01:39;56461.13;;;-142.21;100.00
5053;BME280;2545;50.892;5.740;2023-01-16T04:07:09;56431.72;;;-142.21;100.00
5053;BME280;2545;50.892;5.740;2023-01-16T04:09:44;56400.34;;;-142.21;99.72
5053;BME280;2545;50.892;5.740;2023-01-16T04:12:11;56406.22;;;-142.21;97.82
5053;BME280;2545;50.892;5.740;2023-01-16T04:14:41;56433.69;;;-142.21;96.15
5053;BME280;2545;50.892;5.740;2023-01-16T04:17:07;56392.50;;;-142.21;95.23
5053;BME280;2545;50.892;5.740;2023-01-16T04:19:33;56394.47;;;-142.21;94.16
5053;BME280;2545;50.892;5.740;2023-01-16T04:22:05;56419.97;;;-142.21;92.48
5053;BME280;2545;50.892;5.740;2023-01-16T04:24:30;56406.22;;;-142.21;93.25
5053;BME280;2545;50.892;5.740;2023-01-16T04:26:56;56390.53;;;-142.21;93.16
5053;BME280;2545;50.892;5.740;2023-01-16T04:29:21;56404.28;;;-142.21;93.29
5053;BME280;2545;50.892;5.740;2023-01-16T04:31:46;56394.47;;;-142.21;92.72
5053;BME280;2545;50.892;5.740;2023-01-16T04:34:11;56400.34;;;-142.21;93.98
5053;BME280;2545;50.892;5.740;2023-01-16T04:36:37;56406.22;;;-142.21;92.87
5053;BME280;2545;50.892;5.740;2023-01-16T04:39:02;56423.88;;;-142.21;93.41
5053;BME280;2545;50.892;5.740;2023-01-16T04:41:28;56392.50;;;-142.21;92.92
5053;BME280;2545;50.892;5.740;2023-01-16T04:44:05;56406.22;;;-142.21;93.15
5053;BME280;2545;50.892;5.740;2023-01-16T04:46:31;56380.75;;;-142.21;92.45
5053;BME280;2545;50.892;5.740;2023-01-16T04:48:56;56372.91;;;-142.21;91.99
5053;BME280;2545;50.892;5.740;2023-01-16T04:51:22;56382.69;;;-142.21;91.27
5053;BME280;2545;50.892;5.740;2023-01-16T04:53:47;56418.00;;;-142.21;91.52
5053;BME280;2545;50.892;5.740;2023-01-16T04:56:12;56370.94;;;-142.21;90.56
5053;BME280;2545;50.892;5.740;2023-01-16T04:58:38;56378.78;;;-142.21;90.46
5053;BME280;2545;50.892;5.740;2023-01-16T05:01:03;56402.31;;;-142.21;90.24
5053;BME280;2545;50.892;5.740;2023-01-16T05:03:28;56376.81;;;-142.21;90.92
5053;BME280;2545;50.892;5.740;2023-01-16T05:05:54;56376.81;;;-142.21;90.34
5053;BME280;2545;50.892;5.740;2023-01-16T05:08:19;56400.34;;;-142.21;89.71
5053;BME280;2545;50.892;5.740;2023-01-16T05:10:45;56368.97;;;-142.21;87.91
5053;BME280;2545;50.892;5.740;2023-01-16T05:13:11;56372.91;;;-142.21;87.19
5053;BME280;2545;50.892;5.740;2023-01-16T05:15:36;56421.91;;;-142.21;86.61
5053;BME280;2545;50.892;5.740;2023-01-16T05:18:02;56396.44;;;-142.21;86.92
5053;BME280;2545;50.892;5.740;2023-01-16T05:20:27;56392.50;;;-142.21;86.65
5053;BME280;2545;50.892;5.740;2023-01-16T05:22:52;56427.81;;;-142.21;86.33
5053;BME280;2545;50.892;5.740;2023-01-16T05:25:18;56372.91;;;-142.21;85.68
5053;BME280;2545;50.892;5.740;2023-01-16T05:27:48;56390.53;;;-142.21;85.87
5053;BME280;2545;50.892;5.740;2023-01-16T05:30:14;56402.31;;;-142.21;85.99
5053;BME280;2545;50.892;5.740;2023-01-16T05:32:39;56388.59;;;-142.21;85.29
5053;BME280;2545;50.892;5.740;2023-01-16T05:35:05;56427.81;;;-142.21;85.11
5053;BME280;2545;50.892;5.740;2023-01-16T05:37:30;56374.84;;;-142.21;85.17
5053;BME280;2545;50.892;5.740;2023-01-16T05:39:56;56418.00;;;-142.21;85.47
5053;BME280;2545;50.892;5.740;2023-01-16T05:42:23;56359.16;;;-142.21;86.55
5053;BME280;2545;50.892;5.740;2023-01-16T05:44:51;56378.78;;;-142.21;85.44
5053;BME280;2545;50.892;5.740;2023-01-16T05:47:18;56400.34;;;-142.21;84.39
5053;BME280;2545;50.892;5.740;2023-01-16T05:49:43;56390.53;;;-142.21;84.78
5053;BME280;2545;50.892;5.740;2023-01-16T05:52:08;56367.00;;;-142.21;83.93
5053;BME280;2545;50.892;5.740;2023-01-16T05:54:34;56414.06;;;-142.21;83.93
5053;BME280;2545;50.892;5.740;2023-01-16T05:56:59;56410.16;;;-142.21;84.04
5053;BME280;2545;50.892;5.740;2023-01-16T05:59:24;56398.38;;;-142.21;83.98
5053;BME280;2545;50.892;5.740;2023-01-16T06:01:50;56396.44;;;-142.21;84.16
5053;BME280;2545;50.892;5.740;2023-01-16T06:04:15;56384.66;;;-142.21;83.54
5053;BME280;2545;50.892;5.740;2023-01-16T06:06:43;56408.19;;;-142.21;84.02
5053;BME280;2545;50.892;5.740;2023-01-16T06:09:08;56361.13;;;-142.21;84.25
5053;BME280;2545;50.892;5.740;2023-01-16T06:11:33;56370.94;;;-142.21;83.99
5053;BME280;2545;50.892;5.740;2023-01-16T06:13:59;56370.94;;;-142.21;82.97
5053;BME280;2545;50.892;5.740;2023-01-16T06:16:28;56396.44;;;-142.21;82.42
5053;BME280;2545;50.892;5.740;2023-01-16T06:18:54;56365.06;;;-142.21;82.83
5053;BME280;2545;50.892;5.740;2023-01-16T06:21:19;56406.22;;;-142.21;84.25
5053;BME280;2545;50.892;5.740;2023-01-16T06:23:44;56374.84;;;-142.21;88.55
5053;BME280;2545;50.892;5.740;2023-01-16T06:26:10;56370.94;;;-142.21;90.83
5053;BME280;2545;50.892;5.740;2023-01-16T06:28:36;56374.84;;;-142.21;91.23
5053;BME280;2545;50.892;5.740;2023-01-16T06:31:03;56380.75;;;-142.21;92.54
5053;BME280;2545;50.892;5.740;2023-01-16T06:33:28;56376.81;;;-142.21;98.27
5053;BME280;2545;50.892;5.740;2023-01-16T06:35:53;56370.94;;;-142.21;100.00
5053;BME280;2545;50.892;5.740;2023-01-16T06:38:19;56372.91;;;-142.21;100.00
5053;BME280;2545;50.892;5.740;2023-01-16T06:40:44;56386.63;;;-142.21;100.00
5053;BME280;2545;50.892;5.740;2023-01-16T06:43:10;56363.09;;;-142.21;100.00
5053;BME280;2545;50.892;5.740;2023-01-16T06:45:36;56374.84;;;-142.21;100.00
5053;BME280;2545;50.892;5.740;2023-01-16T06:48:01;56382.69;;;-142.21;100.00
5053;BME280;2545;50.892;5.740;2023-01-16T06:50:27;56402.31;;;-142.21;100.00
5053;BME280;2545;50.892;5.740;2023-01-16T06:52:52;56402.31;;;-142.21;100.00
5053;BME280;2545;50.892;5.740;2023-01-16T06:55:17;56367.00;;;-142.21;100.00
5053;BME280;2545;50.892;5.740;2023-01-16T06:57:42;56408.19;;;-142.21;100.00
5053;BME280;2545;50.892;5.740;2023-01-16T07:00:08;56396.44;;;-142.21;100.00
5053;BME280;2545;50.892;5.740;2023-01-16T07:02:34;56412.13;;;-142.21;100.00
5053;BME280;2545;50.892;5.740;2023-01-16T07:05:08;56398.38;;;-142.21;100.00
5053;BME280;2545;50.892;5.740;2023-01-16T07:07:33;56374.84;;;-142.21;100.00
5053;BME280;2545;50.892;5.740;2023-01-16T07:09:58;56404.28;;;-142.21;100.00
5053;BME280;2545;50.892;5.740;2023-01-16T07:12:24;56410.16;;;-142.21;100.00
5053;BME280;2545;50.892;5.740;2023-01-16T07:14:49;56419.97;;;-142.21;100.00
5053;BME280;2545;50.892;5.740;2023-01-16T07:17:33;56404.28;;;-142.21;100.00
5053;BME280;2545;50.892;5.740;2023-01-16T07:20:17;56365.06;;;-142.21;100.00
5053;BME280;2545;50.892;5.740;2023-01-16T07:23:20;56380.75;;;-142.21;99.65
5053;BME280;2545;50.892;5.740;2023-01-16T07:25:46;56386.63;;;-142.21;97.72
5053;BME280;2545;50.892;5.740;2023-01-16T07:28:13;56388.59;;;-142.21;95.04
5053;BME280;2545;50.892;5.740;2023-01-16T07:30:39;56384.66;;;-142.21;94.72
5053;BME280;2545;50.892;5.740;2023-01-16T07:33:05;56337.59;;;-142.21;93.06
5053;BME280;2545;50.892;5.740;2023-01-16T07:35:30;56374.84;;;-142.21;94.55
5053;BME280;2545;50.892;5.740;2023-01-16T07:37:55;56388.59;;;-142.21;94.82
5053;BME280;2545;50.892;5.740;2023-01-16T07:40:23;56355.25;;;-142.21;94.10
5053;BME280;2545;50.892;5.740;2023-01-16T07:42:51;56367.00;;;-142.21;90.56
5053;BME280;2545;50.892;5.740;2023-01-16T07:45:17;56404.28;;;-142.21;90.89
5053;BME280;2545;50.892;5.740;2023-01-16T07:47:43;56412.13;;;-142.21;92.62
5053;BME280;2545;50.892;5.740;2023-01-16T07:50:08;56363.09;;;-142.21;90.12
5053;BME280;2545;50.892;5.740;2023-01-16T07:52:34;56380.75;;;-142.21;88.26
5053;BME280;2545;50.892;5.740;2023-01-16T07:54:59;56394.47;;;-142.21;88.33
5053;BME280;2545;50.892;5.740;2023-01-16T07:57:25;56410.16;;;-142.21;89.14
5053;BME280;2545;50.892;5.740;2023-01-16T07:59:50;56392.50;;;-142.21;87.71
5053;BME280;2545;50.892;5.740;2023-01-16T08:02:16;56363.09;;;-142.21;89.45
5053;BME280;2545;50.892;5.740;2023-01-16T08:04:41;56410.16;;;-142.21;86.13
5053;BME280;2545;50.892;5.740;2023-01-16T08:07:07;56392.50;;;-142.21;84.47
5053;BME280;2545;50.892;5.740;2023-01-16T08:09:32;56410.16;;;-142.21;83.01
5053;BME280;2545;50.892;5.740;2023-01-16T08:11:57;56402.31;;;-142.21;84.98
5053;BME280;2545;50.892;5.740;2023-01-16T08:14:23;56437.59;;;-142.21;81.77
5053;BME280;2545;50.892;5.740;2023-01-16T08:16:48;56402.31;;;-142.21;82.11
5053;BME280;2545;50.892;5.740;2023-01-16T08:19:14;56408.19;;;-142.21;80.01
5053;BME280;2545;50.892;5.740;2023-01-16T08:21:39;56418.00;;;-142.21;81.54
5053;BME280;2545;50.892;5.740;2023-01-16T08:24:05;56394.47;;;-142.21;81.65
5053;BME280;2545;50.892;5.740;2023-01-16T08:26:30;56419.97;;;-142.21;80.31
5053;BME280;2545;50.892;5.740;2023-01-16T08:28:56;56363.09;;;-142.21;79.39
5053;BME280;2545;50.892;5.740;2023-01-16T08:31:21;56370.94;;;-142.21;80.22
5053;BME280;2545;50.892;5.740;2023-01-16T08:33:48;56394.47;;;-142.21;80.68
5053;BME280;2545;50.892;5.740;2023-01-16T08:36:14;56384.66;;;-142.21;79.91
5053;BME280;2545;50.892;5.740;2023-01-16T08:38:42;56427.81;;;-142.21;79.75
5053;BME280;2545;50.892;5.740;2023-01-16T08:41:08;56331.72;;;-142.21;80.00
5053;BME280;2545;50.892;5.740;2023-01-16T08:43:53;56390.53;;;-142.21;79.52
5053;BME280;2545;50.892;5.740;2023-01-16T08:46:37;56363.09;;;-142.21;79.47
5053;BME280;2545;50.892;5.740;2023-01-16T08:49:21;56382.69;;;-142.21;78.19
5053;BME280;2545;50.892;5.740;2023-01-16T08:52:06;56376.81;;;-142.21;77.92
5053;BME280;2545;50.892;5.740;2023-01-16T08:54:32;56398.38;;;-142.21;79.46
5053;BME280;2545;50.892;5.740;2023-01-16T08:56:57;56414.06;;;-142.21;78.90
5053;BME280;2545;50.892;5.740;2023-01-16T08:59:22;56367.00;;;-142.21;78.87
5053;BME280;2545;50.892;5.740;2023-01-16T09:01:48;56390.53;;;-142.21;79.87
5053;BME280;2545;50.892;5.740;2023-01-16T09:04:13;56368.97;;;-142.21;79.84
5053;BME280;2545;50.892;5.740;2023-01-16T09:06:39;56368.97;;;-142.21;80.56
5053;BME280;2545;50.892;5.740;2023-01-16T09:09:05;56284.66;;;-142.21;80.47
5053;BME280;2545;50.892;5.740;2023-01-16T09:11:34;56372.91;;;-142.21;80.48
5053;BME280;2545;50.892;5.740;2023-01-16T09:14:19;56384.66;;;-142.21;81.51
5053;BME280;2545;50.892;5.740;2023-01-16T09:16:45;56394.47;;;-142.21;82.22
5053;BME280;2545;50.892;5.740;2023-01-16T09:19:10;56386.63;;;-142.21;81.11
5053;BME280;2545;50.892;5.740;2023-01-16T09:21:35;56382.69;;;-142.21;81.28
5053;BME280;2545;50.892;5.740;2023-01-16T09:24:01;56378.78;;;-142.21;82.11
5053;BME280;2545;50.892;5.740;2023-01-16T09:26:28;56380.75;;;-142.21;82.04
5053;BME280;2545;50.892;5.740;2023-01-16T09:28:53;56378.78;;;-142.21;80.59
5053;BME280;2545;50.892;5.740;2023-01-16T09:31:19;56365.06;;;-142.21;82.29
5053;BME280;2545;50.892;5.740;2023-01-16T09:33:44;56423.88;;;-142.21;83.94
5053;BME280;2545;50.892;5.740;2023-01-16T09:36:10;56367.00;;;-142.21;82.72
5053;BME280;2545;50.892;5.740;2023-01-16T09:38:36;56349.38;;;-142.21;83.02
5053;BME280;2545;50.892;5.740;2023-01-16T09:41:01;56410.16;;;-142.21;83.40
5053;BME280;2545;50.892;5.740;2023-01-16T09:46:04;56402.31;;;-142.21;82.18
5053;BME280;2545;50.892;5.740;2023-01-16T09:48:33;56386.63;;;-142.21;83.29
5053;BME280;2545;50.892;5.740;2023-01-16T09:51:05;56359.16;;;-142.21;81.56
5053;BME280;2545;50.892;5.740;2023-01-16T09:53:43;56384.66;;;-142.21;81.22
5053;BME280;2545;50.892;5.740;2023-01-16T09:56:36;56386.63;;;-142.21;81.72
5053;BME280;2545;50.892;5.740;2023-01-16T09:59:27;56368.97;;;-142.21;80.12
5053;BME280;2545;50.892;5.740;2023-01-16T10:02:05;56386.63;;;-142.21;79.75
5053;BME280;2545;50.892;5.740;2023-01-16T10:04:34;56400.34;;;-142.21;78.97
5053;BME280;2545;50.892;5.740;2023-01-16T10:07:18;56335.63;;;-142.21;78.84
5053;BME280;2545;50.892;5.740;2023-01-16T10:09:57;56386.63;;;-142.21;78.18
5053;BME280;2545;50.892;5.740;2023-01-16T10:12:32;56406.22;;;-142.21;77.91
5053;BME280;2545;50.892;5.740;2023-01-16T10:17:55;56384.66;;;-142.21;76.71
5053;BME280;2545;50.892;5.740;2023-01-16T10:26:22;56367.00;;;-142.21;73.64
5053;BME280;2545;50.892;5.740;2023-01-16T10:32:20;56357.22;;;-142.21;72.38
5053;BME280;2545;50.892;5.740;2023-01-16T10:37:26;56339.56;;;-142.21;74.75
5053;BME280;2545;50.892;5.740;2023-01-16T10:39:53;56416.03;;;-142.21;73.57
5053;BME280;2545;50.892;5.740;2023-01-16T10:42:24;56378.78;;;-142.21;76.62
5053;BME280;2545;50.892;5.740;2023-01-16T10:45:23;56402.31;;;-142.21;71.96
5053;BME280;2545;50.892;5.740;2023-01-16T10:48:11;56386.63;;;-142.21;73.26
5053;BME280;2545;50.892;5.740;2023-01-16T10:50:57;56388.59;;;-142.21;72.37
5053;BME280;2545;50.892;5.740;2023-01-16T10:53:23;56376.81;;;-142.21;74.13
5053;BME280;2545;50.892;5.740;2023-01-16T10:55:50;56353.28;;;-142.21;76.16
5053;BME280;2545;50.892;5.740;2023-01-16T10:58:34;56359.16;;;-142.21;78.10
5053;BME280;2545;50.892;5.740;2023-01-16T11:01:03;56392.50;;;-142.21;77.00
5053;BME280;2545;50.892;5.740;2023-01-16T11:03:41;56372.91;;;-142.21;75.86
5053;BME280;2545;50.892;5.740;2023-01-16T11:06:19;56343.47;;;-142.21;73.98
5053;BME280;2545;50.892;5.740;2023-01-16T11:08:48;56382.69;;;-142.21;73.74
5053;BME280;2545;50.892;5.740;2023-01-16T11:11:15;56349.38;;;-142.21;73.26
5053;BME280;2545;50.892;5.740;2023-01-16T11:14:00;56384.66;;;-142.21;74.29
5053;BME280;2545;50.892;5.740;2023-01-16T11:16:46;56361.13;;;-142.21;73.90
5053;BME280;2545;50.892;5.740;2023-01-16T11:19:40;56374.84;;;-142.21;74.29
5053;BME280;2545;50.892;5.740;2023-01-16T11:22:28;56368.97;;;-142.21;74.88
5053;BME280;2545;50.892;5.740;2023-01-16T11:24:56;56374.84;;;-142.21;75.73
5053;BME280;2545;50.892;5.740;2023-01-16T11:27:29;56337.59;;;-142.21;74.63
5053;BME280;2545;50.892;5.740;2023-01-16T11:29:56;56396.44;;;-142.21;75.64
5053;BME280;2545;50.892;5.740;2023-01-16T11:32:23;56376.81;;;-142.21;75.19
5053;BME280;2545;50.892;5.740;2023-01-16T11:34:54;56427.81;;;-142.21;74.20
5053;BME280;2545;50.892;5.740;2023-01-16T11:37:21;56386.63;;;-142.21;74.88
5053;BME280;2545;50.892;5.740;2023-01-16T11:39:49;56349.38;;;-142.21;75.40
5053;BME280;2545;50.892;5.740;2023-01-16T11:42:16;56367.00;;;-142.21;73.39
5053;BME280;2545;50.892;5.740;2023-01-16T11:45:12;56408.19;;;-142.21;73.19
5053;BME280;2545;50.892;5.740;2023-01-16T11:48:00;56382.69;;;-142.21;72.24
5053;BME280;2545;50.892;5.740;2023-01-16T11:50:35;56353.28;;;-142.21;70.60
5053;BME280;2545;50.892;5.740;2023-01-16T11:53:01;56367.00;;;-142.21;66.96
5053;BME280;2545;50.892;5.740;2023-01-16T11:56:08;56386.63;;;-142.21;66.42
5053;BME280;2545;50.892;5.740;2023-01-16T11:58:50;56396.44;;;-142.21;65.59
5053;BME280;2545;50.892;5.740;2023-01-16T12:01:32;56376.81;;;-142.21;66.39
5053;BME280;2545;50.892;5.740;2023-01-16T12:04:24;56386.63;;;-142.21;71.23
5053;BME280;2545;50.892;5.740;2023-01-16T12:09:47;56351.31;;;-142.21;69.27
5053;BME280;2545;50.892;5.740;2023-01-16T12:12:34;56363.09;;;-142.21;69.93
5053;BME280;2545;50.892;5.740;2023-01-16T12:15:31;56349.38;;;-142.21;73.06
5053;BME280;2545;50.892;5.740;2023-01-16T12:20:52;56333.69;;;-142.21;72.92
5053;BME280;2545;50.892;5.740;2023-01-16T12:23:40;56359.16;;;-142.21;74.88
5053;BME280;2545;50.892;5.740;2023-01-16T12:31:38;56406.22;;;-142.21;78.29
5053;BME280;2545;50.892;5.740;2023-01-16T12:39:57;56380.75;;;-142.21;76.58
5053;BME280;2545;50.892;5.740;2023-01-16T12:42:36;56351.31;;;-142.21;76.03
5053;BME280;2545;50.892;5.740;2023-01-16T12:48:49;56402.31;;;-142.21;75.82
5053;BME280;2545;50.892;5.740;2023-01-16T12:54:20;56365.06;;;-142.21;77.67
5053;BME280;2545;50.892;5.740;2023-01-16T12:59:45;56370.94;;;-142.21;79.50
5053;BME280;2545;50.892;5.740;2023-01-16T13:02:35;56374.84;;;-142.21;81.10
5053;BME280;2545;50.892;5.740;2023-01-16T13:05:05;56410.16;;;-142.21;82.39
5053;BME280;2545;50.892;5.740;2023-01-16T13:07:35;56376.81;;;-142.21;85.67
5053;BME280;2545;50.892;5.740;2023-01-16T13:10:14;56374.84;;;-142.21;86.33
5053;BME280;2545;50.892;5.740;2023-01-16T13:13:02;56376.81;;;-142.21;88.86
5053;BME280;2545;50.892;5.740;2023-01-16T13:15:50;56370.94;;;-142.21;88.83
5053;BME280;2545;50.892;5.740;2023-01-16T13:18:22;56390.53;;;-142.21;87.15
5053;BME280;2545;50.892;5.740;2023-01-16T13:20:55;56382.69;;;-142.21;88.44
5053;BME280;2545;50.892;5.740;2023-01-16T13:23:23;56404.28;;;-142.21;86.58
5053;BME280;2545;50.892;5.740;2023-01-16T13:25:59;56365.06;;;-142.21;85.63
5053;BME280;2545;50.892;5.740;2023-01-16T13:28:53;56367.00;;;-142.21;88.21
5053;BME280;2545;50.892;5.740;2023-01-16T13:33:54;56435.66;;;-142.21;86.13
5053;BME280;2545;50.892;5.740;2023-01-16T13:39:43;56418.00;;;-142.21;85.18
5053;BME280;2545;50.892;5.740;2023-01-16T13:42:14;56339.56;;;-142.21;84.21
5053;BME280;2545;50.892;5.740;2023-01-16T13:44:44;56351.31;;;-142.21;83.41
5053;BME280;2545;50.892;5.740;2023-01-16T13:47:36;56339.56;;;-142.21;84.16
5053;BME280;2545;50.892;5.740;2023-01-16T13:50:24;56408.19;;;-142.21;87.95
5053;BME280;2545;50.892;5.740;2023-01-16T13:52:54;56382.69;;;-142.21;89.65
5053;BME280;2545;50.892;5.740;2023-01-16T13:55:28;56384.66;;;-142.21;90.59
5053;BME280;2545;50.892;5.740;2023-01-16T13:57:56;56412.13;;;-142.21;95.65
5053;BME280;2545;50.892;5.740;2023-01-16T14:00:31;56390.53;;;-142.21;100.00
5053;BME280;2545;50.892;5.740;2023-01-16T14:03:24;56400.34;;;-142.21;100.00
5053;BME280;2545;50.892;5.740;2023-01-16T14:05:51;56392.50;;;-142.21;100.00
5053;BME280;2545;50.892;5.740;2023-01-16T14:11:14;56343.47;;;-142.21;100.00
5053;BME280;2545;50.892;5.740;2023-01-16T14:13:40;56386.63;;;-142.21;100.00
5053;BME280;2545;50.892;5.740;2023-01-16T14:21:24;56388.59;;;-142.21;100.00
5053;BME280;2545;50.892;5.740;2023-01-16T14:24:17;56384.66;;;-142.21;100.00
5053;BME280;2545;50.892;5.740;2023-01-16T14:26:56;56378.78;;;-142.21;100.00
5053;BME280;2545;50.892;5.740;2023-01-16T14:29:48;56370.94;;;-142.21;100.00
5053;BME280;2545;50.892;5.740;2023-01-16T14:35:12;56374.84;;;-142.21;100.00
5053;BME280;2545;50.892;5.740;2023-01-16T14:37:41;56380.75;;;-142.21;100.00
5053;BME280;2545;50.892;5.740;2023-01-16T14:42:51;56398.38;;;-142.21;100.00
5053;BME280;2545;50.892;5.740;2023-01-16T14:45:41;56384.66;;;-142.21;100.00
5053;BME280;2545;50.892;5.740;2023-01-16T14:48:37;56396.44;;;-142.21;100.00
5053;BME280;2545;50.892;5.740;2023-01-16T14:51:30;56386.63;;;-142.21;100.00
5053;BME280;2545;50.892;5.740;2023-01-16T14:54:25;56392.50;;;-142.21;100.00